Time;durP1;ratioP1;P1;durP2;ratioP2;P2;SDS_P1;SDS_P2;PMS_P1;PMS_P2;Temp;Humidity;BMP_temperature;BMP_pressure;BME280_temperature;BME280_humidity;BME280_pressure;Samples;Min_cycle;Max_cycle;Signal;HPM_P1;HPM_P2
2021/10/13 00:04:00;;;;;;;3.35;0.77;;;;;;;;;;10384330;28;20038;-72
2021/10/13 00:09:03;;;;;;;0.93;0.82;;;;;;;;;;10380729;28;20635;-72
2021/10/13 00:14:06;;;;;;;0.93;0.52;;;;;;;;;;10376503;28;20410;-70
2021/10/13 00:19:11;;;;;;;0.98;0.55;;;;;;;;;;10384599;28;20107;-71
2021/10/13 00:24:14;;;;;;;0.82;0.57;;;;;;;;;;10390016;28;20041;-72
2021/10/13 00:29:16;;;;;;;1.42;0.57;;;;;;;;;;10386618;28;20156;-73
2021/10/13 00:34:21;;;;;;;1.67;0.80;;;;;;;;;;10384791;28;20061;-71
2021/10/13 00:39:24;;;;;;;3.25;1.20;;;;;;;;;;10388277;28;20267;-70
2021/10/13 00:44:27;;;;;;;2.85;1.45;;;;;;;;;;10394756;28;20513;-70
2021/10/13 00:49:31;;;;;;;2.17;1.02;;;;;;;;;;10394060;28;20105;-72
2021/10/13 00:54:34;;;;;;;4.85;1.63;;;;;;;;;;10390264;28;20045;-70
2021/10/13 00:59:37;;;;;;;3.63;1.90;;;;;;;;;;10388605;28;20038;-68
2021/10/13 01:04:47;;;;;;;3.63;1.80;;;;;;;;;;10387485;28;20065;-71
2021/10/13 01:09:54;;;;;;;5.65;1.77;;;;;;;;;;10396623;28;20469;-73
2021/10/13 01:15:01;;;;;;;4.32;2.00;;;;;;;;;;10391394;28;20160;-71
2021/10/13 01:20:18;;;;;;;4.15;2.33;;;;;;;;;;10387905;28;20143;-73
2021/10/13 01:25:47;;;;;;;4.97;2.17;;;;;;;;;;10396534;28;20137;-71
2021/10/13 01:31:14;;;;;;;5.18;2.10;;;;;;;;;;10393096;28;20049;-70
2021/10/13 01:36:24;;;;;;;4.97;2.33;;;;;;;;;;10392147;28;20045;-71
2021/10/13 01:41:27;;;;;;;3.95;2.00;;;;;;;;;;10390110;28;20088;-70
2021/10/13 01:46:32;;;;;;;5.33;2.60;;;;;;;;;;10384153;28;20042;-71
2021/10/13 01:51:35;;;;;;;5.50;2.38;;;;;;;;;;10385395;28;20461;-71
2021/10/13 01:56:39;;;;;;;6.47;2.53;;;;;;;;;;10391825;28;20068;-72
2021/10/13 02:01:43;;;;;;;4.63;2.08;;;;;;;;;;10390172;28;20052;-72
2021/10/13 02:06:48;;;;;;;7.35;2.63;;;;;;;;;;10386211;28;20080;-71
2021/10/13 02:11:51;;;;;;;3.80;2.13;;;;;;;;;;10392707;28;20073;-72
2021/10/13 02:16:57;;;;;;;6.27;2.93;;;;;;;;;;10396890;28;20037;-72
2021/10/13 02:22:01;;;;;;;5.35;2.72;;;;;;;;;;10393578;28;20109;-72
2021/10/13 02:27:05;;;;;;;8.20;2.80;;;;;;;;;;10389046;28;20034;-70
2021/10/13 02:32:12;;;;;;;6.70;2.80;;;;;;;;;;10389527;28;20105;-72
2021/10/13 02:37:15;;;;;;;6.30;3.20;;;;;;;;;;10389768;28;20527;-73
2021/10/13 02:42:18;;;;;;;5.40;2.42;;;;;;;;;;10392089;28;20081;-71
2021/10/13 02:47:24;;;;;;;2.10;1.15;;;;;;;;;;10393253;28;20061;-71
2021/10/13 02:52:29;;;;;;;4.32;2.10;;;;;;;;;;10384294;28;20605;-71
2021/10/13 02:57:35;;;;;;;4.07;2.17;;;;;;;;;;10383154;28;20064;-70
2021/10/13 03:02:42;;;;;;;4.50;2.25;;;;;;;;;;10386864;28;20045;-71
2021/10/13 03:07:46;;;;;;;5.47;2.90;;;;;;;;;;10387761;28;20036;-73
2021/10/13 03:12:51;;;;;;;5.43;2.63;;;;;;;;;;10397347;28;20163;-70
2021/10/13 03:17:56;;;;;;;5.55;2.83;;;;;;;;;;10387051;28;20116;-72
2021/10/13 03:23:01;;;;;;;6.22;2.90;;;;;;;;;;10386349;28;20088;-70
2021/10/13 03:28:04;;;;;;;6.50;2.70;;;;;;;;;;10382678;28;20183;-69
2021/10/13 03:33:08;;;;;;;8.35;2.97;;;;;;;;;;10391235;28;20056;-74
2021/10/13 03:38:11;;;;;;;6.35;3.05;;;;;;;;;;10384833;28;20034;-71
2021/10/13 03:43:14;;;;;;;7.07;2.53;;;;;;;;;;10394315;28;20186;-70
2021/10/13 03:48:19;;;;;;;5.60;2.92;;;;;;;;;;10388000;28;20123;-67
2021/10/13 03:53:21;;;;;;;6.93;2.83;;;;;;;;;;10385374;28;20572;-71
2021/10/13 03:58:24;;;;;;;6.72;3.05;;;;;;;;;;10387956;28;20107;-72
2021/10/13 04:03:28;;;;;;;6.57;3.28;;;;;;;;;;10389480;28;20465;-72
2021/10/13 04:08:31;;;;;;;7.63;3.22;;;;;;;;;;10392294;28;20045;-70
2021/10/13 04:13:40;;;;;;;7.60;3.28;;;;;;;;;;10392929;28;20120;-71
2021/10/13 04:18:44;;;;;;;8.68;3.85;;;;;;;;;;10397557;28;20475;-69
2021/10/13 04:23:47;;;;;;;;;;;;;;;;;;10400037;28;20128;-71
2021/10/13 04:28:49;;;;;;;6.13;2.70;;;;;;;;;;10399875;28;20343;-72
2021/10/13 04:34:06;;;;;;;8.68;3.63;;;;;;;;;;10393605;28;20079;-73
2021/10/13 04:39:08;;;;;;;;;;;;;;;;;;10397817;28;20446;-72
2021/10/13 04:44:12;;;;;;;11.05;4.25;;;;;;;;;;10395219;28;19928;-72
2021/10/13 04:49:17;;;;;;;12.55;4.85;;;;;;;;;;10403366;28;20041;-71
2021/10/13 04:54:20;;;;;;;8.93;3.72;;;;;;;;;;10394138;28;20091;-72
2021/10/13 04:59:29;;;;;;;9.38;3.90;;;;;;;;;;10397942;28;20060;-74
2021/10/13 05:04:33;;;;;;;7.32;3.33;;;;;;;;;;10383461;28;20494;-73
2021/10/13 05:09:36;;;;;;;8.75;3.35;;;;;;;;;;10394947;28;20037;-73
2021/10/13 05:14:39;;;;;;;8.85;3.90;;;;;;;;;;10395266;28;20042;-71
2021/10/13 05:19:43;;;;;;;10.20;4.38;;;;;;;;;;10392833;28;20042;-74
2021/10/13 05:24:46;;;;;;;11.25;4.30;;;;;;;;;;10393662;28;20073;-71
2021/10/13 05:29:49;;;;;;;9.52;4.53;;;;;;;;;;10392268;28;20069;-70
2021/10/13 05:34:53;;;;;;;11.07;3.75;;;;;;;;;;10388087;28;20115;-71
2021/10/13 05:39:56;;;;;;;12.75;4.72;;;;;;;;;;10396876;28;20501;-73
2021/10/13 05:44:59;;;;;;;9.53;3.90;;;;;;;;;;10401029;28;20040;-71
2021/10/13 05:50:04;;;;;;;12.27;4.90;;;;;;;;;;10390285;28;20041;-73
2021/10/13 05:55:07;;;;;;;15.65;3.78;;;;;;;;;;10396910;28;20037;-71
2021/10/13 06:00:11;;;;;;;9.13;3.90;;;;;;;;;;10398308;28;20164;-71
2021/10/13 06:05:15;;;;;;;8.65;4.00;;;;;;;;;;10396578;28;20045;-71
2021/10/13 06:10:18;;;;;;;8.15;3.67;;;;;;;;;;10395182;28;20038;-68
2021/10/13 06:15:21;;;;;;;8.70;3.80;;;;;;;;;;10398403;28;20509;-72
2021/10/13 06:20:26;;;;;;;9.43;4.40;;;;;;;;;;10394066;28;20541;-73
2021/10/13 06:25:29;;;;;;;9.23;4.40;;;;;;;;;;10392862;28;20068;-71
2021/10/13 06:30:33;;;;;;;10.13;4.93;;;;;;;;;;10386934;28;20575;-71
2021/10/13 06:35:35;;;;;;;;;;;;;;;;;;10386672;28;20569;-71
2021/10/13 06:40:40;;;;;;;12.23;5.30;;;;;;;;;;10393004;28;19936;-69
2021/10/13 06:45:43;;;;;;;10.65;5.70;;;;;;;;;;10382178;28;20042;-71
2021/10/13 06:50:46;;;;;;;10.93;5.35;;;;;;;;;;10382819;28;20377;-71
2021/10/13 06:55:50;;;;;;;12.27;5.55;;;;;;;;;;10393505;28;20036;-70
2021/10/13 07:00:53;;;;;;;11.73;5.18;;;;;;;;;;10389442;28;20068;-69
2021/10/13 07:05:56;;;;;;;11.05;5.03;;;;;;;;;;10387764;28;20038;-70
2021/10/13 07:11:00;;;;;;;8.90;4.28;;;;;;;;;;10393222;28;20045;-70
2021/10/13 07:16:03;;;;;;;11.00;4.55;;;;;;;;;;10389402;28;20042;-71
2021/10/13 07:21:05;;;;;;;10.10;4.30;;;;;;;;;;10387967;28;20045;-70
2021/10/13 07:26:10;;;;;;;9.63;4.57;;;;;;;;;;10388014;28;20034;-69
2021/10/13 07:31:13;;;;;;;9.00;4.68;;;;;;;;;;10382719;28;20041;-71
2021/10/13 07:36:15;;;;;;;9.77;4.20;;;;;;;;;;10395574;28;20362;-71
2021/10/13 07:41:20;;;;;;;10.82;5.00;;;;;;;;;;10375817;28;20474;-70
2021/10/13 07:46:25;;;;;;;11.45;5.30;;;;;;;;;;10388995;28;20111;-69
2021/10/13 07:51:28;;;;;;;11.18;4.95;;;;;;;;;;10389169;28;20038;-69
2021/10/13 07:56:32;;;;;;;9.80;4.93;;;;;;;;;;10387418;28;20139;-69
2021/10/13 08:01:35;;;;;;;8.82;4.05;;;;;;;;;;10381493;28;20048;-70
2021/10/13 08:06:38;;;;;;;7.77;3.87;;;;;;;;;;10386804;28;20457;-70
2021/10/13 08:11:43;;;;;;;8.57;3.60;;;;;;;;;;10382202;28;20525;-72
2021/10/13 08:16:46;;;;;;;5.78;3.30;;;;;;;;;;10384671;28;20041;-72
2021/10/13 08:21:49;;;;;;;8.67;4.13;;;;;;;;;;10383331;28;20083;-69
2021/10/13 08:26:53;;;;;;;8.37;3.70;;;;;;;;;;10385371;28;20102;-71
2021/10/13 08:31:56;;;;;;;9.73;3.42;;;;;;;;;;10383150;28;20096;-70
2021/10/13 08:36:59;;;;;;;7.80;3.53;;;;;;;;;;10380053;28;20457;-69
2021/10/13 08:42:03;;;;;;;5.37;2.80;;;;;;;;;;10392949;28;20053;-71
2021/10/13 08:47:09;;;;;;;8.82;3.53;;;;;;;;;;10382193;28;20117;-68
2021/10/13 08:52:12;;;;;;;7.18;3.88;;;;;;;;;;10387042;28;20140;-70
2021/10/13 08:57:17;;;;;;;7.22;3.42;;;;;;;;;;10386710;28;20037;-68
2021/10/13 09:02:35;;;;;;;7.47;3.28;;;;;;;;;;10388297;28;20339;-72
2021/10/13 09:07:38;;;;;;;4.90;3.17;;;;;;;;;;10387506;28;20044;-74
2021/10/13 09:12:45;;;;;;;7.13;3.15;;;;;;;;;;10396199;28;20493;-71
2021/10/13 09:17:51;;;;;;;7.43;3.00;;;;;;;;;;10399118;28;20558;-69
2021/10/13 09:23:02;;;;;;;3.67;2.13;;;;;;;;;;10381108;28;20493;-69
2021/10/13 09:28:06;;;;;;;4.95;2.80;;;;;;;;;;10386126;28;20050;-69
2021/10/13 09:33:13;;;;;;;3.78;1.88;;;;;;;;;;10389850;28;20040;-71
2021/10/13 09:38:17;;;;;;;5.15;2.88;;;;;;;;;;10389227;28;20044;-71
2021/10/13 09:43:32;;;;;;;8.07;2.97;;;;;;;;;;10387133;28;20081;-71
2021/10/13 09:48:35;;;;;;;11.82;3.47;;;;;;;;;;10388188;28;20417;-72
2021/10/13 09:53:54;;;;;;;8.40;3.25;;;;;;;;;;10393919;28;20423;-70
2021/10/13 09:59:12;;;;;;;4.13;2.37;;;;;;;;;;10393956;28;20475;-70
2021/10/13 10:04:16;;;;;;;5.55;3.08;;;;;;;;;;10386790;28;20308;-70
2021/10/13 10:09:19;;;;;;;3.72;2.47;;;;;;;;;;10390996;28;20065;-71
2021/10/13 10:14:42;;;;;;;4.70;2.90;;;;;;;;;;10382764;28;20053;-70
2021/10/13 10:19:45;;;;;;;4.60;3.20;;;;;;;;;;10373160;28;20041;-71
2021/10/13 10:24:52;;;;;;;3.85;2.90;;;;;;;;;;10391340;28;20075;-71
2021/10/13 10:30:13;;;;;;;6.35;3.10;;;;;;;;;;10381437;28;20038;-71
2021/10/13 10:35:17;;;;;;;3.70;2.40;;;;;;;;;;10383493;28;20061;-71
2021/10/13 10:40:21;;;;;;;5.03;2.67;;;;;;;;;;10388378;28;20583;-71
2021/10/13 10:45:26;;;;;;;5.13;2.35;;;;;;;;;;10386835;28;20057;-68
2021/10/13 10:50:33;;;;;;;7.20;2.55;;;;;;;;;;10378231;28;20041;-72
2021/10/13 10:55:37;;;;;;;4.38;2.90;;;;;;;;;;10386583;28;20045;-70
2021/10/13 11:00:42;;;;;;;6.40;2.75;;;;;;;;;;10388413;28;20033;-70
2021/10/13 11:05:46;;;;;;;5.07;3.08;;;;;;;;;;10382029;28;20099;-70
2021/10/13 11:10:48;;;;;;;7.80;4.32;;;;;;;;;;10387863;28;20187;-70
2021/10/13 11:15:53;;;;;;;3.72;2.63;;;;;;;;;;10385044;28;20044;-71
2021/10/13 11:20:56;;;;;;;3.72;2.47;;;;;;;;;;10389646;28;20107;-71
2021/10/13 11:25:59;;;;;;;3.92;2.20;;;;;;;;;;10386333;28;20109;-71
2021/10/13 11:31:05;;;;;;;4.45;2.05;;;;;;;;;;10394729;28;20101;-72
2021/10/13 11:36:08;;;;;;;5.43;3.75;;;;;;;;;;10391687;28;20037;-70
2021/10/13 11:41:13;;;;;;;8.13;3.67;;;;;;;;;;10390595;28;20087;-69
2021/10/13 11:46:18;;;;;;;2.15;1.48;;;;;;;;;;10385110;28;21020;-69
2021/10/13 11:51:21;;;;;;;3.45;2.05;;;;;;;;;;10390243;28;20227;-68
2021/10/13 11:56:24;;;;;;;1.75;1.40;;;;;;;;;;10387107;28;20421;-72
2021/10/13 12:01:28;;;;;;;2.33;1.30;;;;;;;;;;10377296;28;20121;-70
2021/10/13 12:06:41;;;;;;;0.98;0.90;;;;;;;;;;10388647;28;20091;-69
2021/10/13 12:11:43;;;;;;;1.85;1.02;;;;;;;;;;10391435;28;20041;-70
2021/10/13 12:16:48;;;;;;;2.80;1.40;;;;;;;;;;10389069;28;20049;-69
2021/10/13 12:22:00;;;;;;;3.60;1.40;;;;;;;;;;10390540;28;20382;-71
2021/10/13 12:27:03;;;;;;;5.28;2.72;;;;;;;;;;10391356;28;20045;-71
2021/10/13 12:32:16;;;;;;;1.75;1.55;;;;;;;;;;10386725;28;20072;-70
2021/10/13 12:37:23;;;;;;;4.57;2.20;;;;;;;;;;10398651;28;20094;-70
2021/10/13 12:42:26;;;;;;;2.83;1.30;;;;;;;;;;10399789;28;20470;-70
2021/10/13 12:47:30;;;;;;;2.67;1.70;;;;;;;;;;10391497;28;20524;-71
2021/10/13 12:52:34;;;;;;;4.45;2.00;;;;;;;;;;10395672;28;20452;-71
2021/10/13 12:57:37;;;;;;;3.63;2.10;;;;;;;;;;10401650;28;20065;-71
2021/10/13 13:02:41;;;;;;;6.38;2.75;;;;;;;;;;10404233;28;20044;-70
2021/10/13 13:07:44;;;;;;;2.92;1.90;;;;;;;;;;10400919;28;20056;-71
2021/10/13 13:12:47;;;;;;;3.30;2.20;;;;;;;;;;10393581;28;20045;-71
2021/10/13 13:17:51;;;;;;;4.07;2.00;;;;;;;;;;10396398;28;20093;-70
2021/10/13 13:22:54;;;;;;;2.25;1.48;;;;;;;;;;10402119;28;20122;-68
2021/10/13 13:27:57;;;;;;;2.25;1.50;;;;;;;;;;10398947;28;20041;-72
2021/10/13 13:33:01;;;;;;;2.65;1.73;;;;;;;;;;10395531;28;20473;-71
2021/10/13 13:38:04;;;;;;;0.68;0.65;;;;;;;;;;10394854;28;20052;-69
2021/10/13 13:43:07;;;;;;;3.25;1.55;;;;;;;;;;10388072;28;20052;-71
2021/10/13 13:48:12;;;;;;;3.17;1.10;;;;;;;;;;10400551;28;20061;-71
2021/10/13 13:53:15;;;;;;;2.28;1.02;;;;;;;;;;10395448;28;20042;-73
2021/10/13 13:58:18;;;;;;;2.37;1.33;;;;;;;;;;10397238;28;20042;-69
2021/10/13 14:03:22;;;;;;;3.20;1.57;;;;;;;;;;10394783;28;21027;-72
2021/10/13 14:08:26;;;;;;;2.55;1.15;;;;;;;;;;10393520;28;20061;-70
2021/10/13 14:13:29;;;;;;;3.25;1.20;;;;;;;;;;10381144;28;20050;-69
2021/10/13 14:18:33;;;;;;;6.67;2.53;;;;;;;;;;10386686;28;20046;-70
2021/10/13 14:23:36;;;;;;;3.88;1.70;;;;;;;;;;10390931;28;20100;-69
2021/10/13 14:28:38;;;;;;;2.70;1.40;;;;;;;;;;10397184;28;20164;-71
2021/10/13 14:33:43;;;;;;;3.05;1.30;;;;;;;;;;10397334;28;20374;-70
2021/10/13 14:38:46;;;;;;;0.75;0.68;;;;;;;;;;10386658;28;20461;-68
2021/10/13 14:43:49;;;;;;;1.17;0.57;;;;;;;;;;10388759;28;20078;-68
2021/10/13 14:48:53;;;;;;;0.43;0.43;;;;;;;;;;10391704;28;20041;-71
2021/10/13 14:53:56;;;;;;;0.25;0.25;;;;;;;;;;10386454;28;20166;-70
2021/10/13 14:59:00;;;;;;;0.95;0.60;;;;;;;;;;10392773;28;20057;-69
2021/10/13 15:04:05;;;;;;;0.90;0.70;;;;;;;;;;10388213;28;20056;-70
2021/10/13 15:09:08;;;;;;;0.75;0.68;;;;;;;;;;10389039;28;20073;-69
2021/10/13 15:14:11;;;;;;;0.75;0.73;;;;;;;;;;10395235;28;20104;-72
2021/10/13 15:19:16;;;;;;;2.27;0.70;;;;;;;;;;10393597;28;20385;-70
2021/10/13 15:24:18;;;;;;;1.38;0.70;;;;;;;;;;10397246;28;20069;-69
2021/10/13 15:29:24;;;;;;;1.27;0.90;;;;;;;;;;10392710;28;20482;-69
2021/10/13 15:34:29;;;;;;;2.42;0.63;;;;;;;;;;10393628;28;20147;-69
2021/10/13 15:39:32;;;;;;;2.50;1.02;;;;;;;;;;10386118;28;20453;-69
2021/10/13 15:44:35;;;;;;;2.42;1.00;;;;;;;;;;10396558;28;20049;-72
2021/10/13 15:49:39;;;;;;;1.77;0.80;;;;;;;;;;10395451;28;20041;-68
2021/10/13 15:54:42;;;;;;;2.83;1.13;;;;;;;;;;10392723;28;20045;-68
2021/10/13 15:59:46;;;;;;;2.05;1.17;;;;;;;;;;10395151;28;20151;-68
2021/10/13 16:04:51;;;;;;;2.60;1.35;;;;;;;;;;10388604;28;20046;-70
2021/10/13 16:09:58;;;;;;;1.95;1.20;;;;;;;;;;10381943;28;20100;-70
2021/10/13 16:15:01;;;;;;;4.03;1.27;;;;;;;;;;10403732;28;20489;-69
2021/10/13 16:20:06;;;;;;;2.30;1.33;;;;;;;;;;10399168;28;20099;-69
2021/10/13 16:25:09;;;;;;;1.75;1.17;;;;;;;;;;10397976;28;20053;-70
2021/10/13 16:30:12;;;;;;;4.00;1.30;;;;;;;;;;10395810;28;20050;-71
2021/10/13 16:35:17;;;;;;;3.78;1.45;;;;;;;;;;10391694;28;20061;-72
2021/10/13 16:40:19;;;;;;;;;;;;;;;;;;10396437;28;20076;-71
2021/10/13 16:45:22;;;;;;;5.13;1.58;;;;;;;;;;10395251;28;19921;-71
2021/10/13 16:50:26;;;;;;;7.05;1.77;;;;;;;;;;10396402;28;20132;-70
2021/10/13 16:55:29;;;;;;;3.20;1.40;;;;;;;;;;10402299;28;20069;-70
2021/10/13 17:00:32;;;;;;;4.80;1.73;;;;;;;;;;10400510;28;20042;-69
2021/10/13 17:05:36;;;;;;;5.15;2.25;;;;;;;;;;10395139;28;20051;-69
2021/10/13 17:10:39;;;;;;;5.65;2.42;;;;;;;;;;10389887;28;20109;-70
2021/10/13 17:15:42;;;;;;;5.85;1.90;;;;;;;;;;10389922;28;20541;-67
2021/10/13 17:20:46;;;;;;;9.20;2.30;;;;;;;;;;10397575;28;20042;-69
2021/10/13 17:25:49;;;;;;;;;;;;;;;;;;10396502;28;20057;-70
2021/10/13 17:30:52;;;;;;;6.43;2.05;;;;;;;;;;10393822;28;20322;-69
2021/10/13 17:35:59;;;;;;;13.60;4.65;;;;;;;;;;10387600;28;20033;-70
2021/10/13 17:41:02;;;;;;;6.32;2.97;;;;;;;;;;10397352;28;20045;-70
2021/10/13 17:46:04;;;;;;;7.88;2.92;;;;;;;;;;10394819;28;20490;-69
2021/10/13 17:51:09;;;;;;;4.67;2.27;;;;;;;;;;10395869;28;20045;-70
2021/10/13 17:56:12;;;;;;;4.07;1.58;;;;;;;;;;10402784;28;20041;-70
2021/10/13 18:01:15;;;;;;;5.20;2.05;;;;;;;;;;10391466;28;20037;-71
2021/10/13 18:06:19;;;;;;;3.63;1.75;;;;;;;;;;10394565;28;20056;-69
2021/10/13 18:11:22;;;;;;;6.13;2.72;;;;;;;;;;10392060;28;20317;-70
2021/10/13 18:16:26;;;;;;;6.38;2.67;;;;;;;;;;10391701;28;20133;-70
2021/10/13 18:21:28;;;;;;;;;;;;;;;;;;10394060;28;20042;-70
2021/10/13 18:26:33;;;;;;;4.38;1.98;;;;;;;;;;10387121;28;20254;-70
2021/10/13 18:31:37;;;;;;;5.43;1.83;;;;;;;;;;10395365;28;20107;-70
2021/10/13 18:36:39;;;;;;;4.10;2.10;;;;;;;;;;10385904;28;20132;-70
2021/10/13 18:41:44;;;;;;;5.13;2.20;;;;;;;;;;10391304;28;20034;-69
2021/10/13 18:46:46;;;;;;;;;;;;;;;;;;10394014;28;20084;-71
2021/10/13 18:51:49;;;;;;;5.03;1.75;;;;;;;;;;10391037;28;20183;-70
2021/10/13 18:56:53;;;;;;;5.05;2.50;;;;;;;;;;10395433;28;20045;-70
2021/10/13 19:01:56;;;;;;;4.05;1.58;;;;;;;;;;10397563;28;20116;-70
2021/10/13 19:06:59;;;;;;;7.32;2.38;;;;;;;;;;10401688;28;20121;-69
2021/10/13 19:12:04;;;;;;;5.47;2.50;;;;;;;;;;10390970;28;20528;-70
2021/10/13 19:17:07;;;;;;;6.75;2.47;;;;;;;;;;10387433;28;20041;-71
2021/10/13 19:22:10;;;;;;;6.00;2.47;;;;;;;;;;10391626;28;20410;-71
2021/10/13 19:27:16;;;;;;;4.57;2.42;;;;;;;;;;10397187;28;20359;-71
2021/10/13 19:32:19;;;;;;;5.57;2.60;;;;;;;;;;10392254;28;20382;-72
2021/10/13 19:37:22;;;;;;;4.28;2.25;;;;;;;;;;10392819;28;20490;-70
2021/10/13 19:42:27;;;;;;;4.80;2.65;;;;;;;;;;10390881;28;20041;-70
2021/10/13 19:47:30;;;;;;;4.78;2.65;;;;;;;;;;10390660;28;20496;-71
2021/10/13 19:52:33;;;;;;;4.78;2.20;;;;;;;;;;10394192;28;20095;-71
2021/10/13 19:57:38;;;;;;;6.38;2.55;;;;;;;;;;10399786;28;20057;-70
2021/10/13 20:02:41;;;;;;;4.80;2.45;;;;;;;;;;10385296;28;20034;-70
2021/10/13 20:07:45;;;;;;;9.00;3.35;;;;;;;;;;10401569;28;20060;-70
2021/10/13 20:12:49;;;;;;;4.93;2.47;;;;;;;;;;10392486;28;20061;-70
2021/10/13 20:17:52;;;;;;;3.78;1.77;;;;;;;;;;10390546;28;20045;-71
2021/10/13 20:22:54;;;;;;;5.68;2.45;;;;;;;;;;10397458;28;20471;-71
2021/10/13 20:27:59;;;;;;;6.93;2.88;;;;;;;;;;10393800;28;20042;-72
2021/10/13 20:33:01;;;;;;;5.65;2.60;;;;;;;;;;10387823;28;20046;-72
2021/10/13 20:38:04;;;;;;;5.63;2.53;;;;;;;;;;10393961;28;20041;-70
2021/10/13 20:43:09;;;;;;;7.00;2.70;;;;;;;;;;10385354;28;20045;-71
2021/10/13 20:48:12;;;;;;;6.75;2.72;;;;;;;;;;10387385;28;20167;-70
2021/10/13 20:53:15;;;;;;;5.68;2.60;;;;;;;;;;10391937;28;20076;-71
2021/10/13 20:58:19;;;;;;;6.22;2.40;;;;;;;;;;10395711;28;20065;-70
2021/10/13 21:03:22;;;;;;;3.95;2.17;;;;;;;;;;10397225;28;20414;-70
2021/10/13 21:08:25;;;;;;;5.97;2.38;;;;;;;;;;10415412;28;20393;-71
2021/10/13 21:13:29;;;;;;;3.30;1.80;;;;;;;;;;10419098;28;20377;-70
2021/10/13 21:18:31;;;;;;;;;;;;;;;;;;10417347;28;20086;-70
2021/10/13 21:23:34;;;;;;;5.00;1.92;;;;;;;;;;10412999;28;19921;-68
2021/10/13 21:28:39;;;;;;;4.70;1.85;;;;;;;;;;10421824;28;20464;-69
2021/10/13 21:33:41;;;;;;;4.10;1.92;;;;;;;;;;10416801;28;20583;-70
2021/10/13 21:38:44;;;;;;;4.85;2.25;;;;;;;;;;10403047;28;20049;-71
2021/10/13 21:43:48;;;;;;;2.67;1.27;;;;;;;;;;10399937;28;20072;-70
2021/10/13 21:48:51;;;;;;;3.97;2.10;;;;;;;;;;10398097;28;20365;-70
2021/10/13 21:53:54;;;;;;;5.00;2.55;;;;;;;;;;10401729;28;20045;-70
2021/10/13 21:58:58;;;;;;;7.90;2.78;;;;;;;;;;10397762;28;20103;-68
2021/10/13 22:04:01;;;;;;;6.10;2.80;;;;;;;;;;10393043;28;20053;-69
2021/10/13 22:09:04;;;;;;;7.70;2.65;;;;;;;;;;10390233;28;20064;-68
2021/10/13 22:14:09;;;;;;;6.25;2.63;;;;;;;;;;10385488;28;20053;-69
2021/10/13 22:19:12;;;;;;;6.50;2.67;;;;;;;;;;10393928;28;20042;-67
2021/10/13 22:24:15;;;;;;;7.33;3.20;;;;;;;;;;10385634;28;20085;-69
2021/10/13 22:29:19;;;;;;;8.73;2.43;;;;;;;;;;10393973;28;20046;-69
2021/10/13 22:34:21;;;;;;;;;;;;;;;;;;10388815;28;20050;-68
2021/10/13 22:39:24;;;;;;;5.27;2.27;;;;;;;;;;10395751;28;19924;-70
2021/10/13 22:44:28;;;;;;;5.90;2.33;;;;;;;;;;10393350;28;20155;-70
2021/10/13 22:49:31;;;;;;;5.60;1.80;;;;;;;;;;10385001;28;20045;-70
2021/10/13 22:54:37;;;;;;;5.77;1.90;;;;;;;;;;10389186;28;20353;-69
2021/10/13 22:59:41;;;;;;;8.67;3.23;;;;;;;;;;10399501;28;20529;-69
2021/10/13 23:04:44;;;;;;;;;;;;;;;;;;10397137;28;20464;-70
2021/10/13 23:09:46;;;;;;;6.50;2.70;;;;;;;;;;10395780;28;19921;-69
2021/10/13 23:14:51;;;;;;;8.83;2.63;;;;;;;;;;10400159;28;20141;-69
2021/10/13 23:19:54;;;;;;;;;;;;;;;;;;10394425;28;20449;-69
2021/10/13 23:24:56;;;;;;;5.40;2.40;;;;;;;;;;10390091;28;19921;-68
2021/10/13 23:30:01;;;;;;;8.67;3.10;;;;;;;;;;10386766;28;20045;-69
2021/10/13 23:35:04;;;;;;;11.97;3.97;;;;;;;;;;10387669;28;20038;-70
2021/10/13 23:40:08;;;;;;;4.90;2.70;;;;;;;;;;10388474;28;20566;-70
2021/10/13 23:45:12;;;;;;;9.20;3.03;;;;;;;;;;10386879;28;20038;-69
2021/10/13 23:50:15;;;;;;;6.17;2.83;;;;;;;;;;10388606;28;20472;-69
2021/10/13 23:55:18;;;;;;;2.37;1.70;;;;;;;;;;10385284;28;20086;-69
